Time;durP1;ratioP1;P1;durP2;ratioP2;P2;SDS_P1;SDS_P2;PMS_P1;PMS_P2;Temp;Humidity;BMP_temperature;BMP_pressure;BME280_temperature;BME280_humidity;BME280_pressure;Samples;Min_cycle;Max_cycle;Signal;HPM_P1;HPM_P2
2023/04/17 00:01:50;;;;;;;14.60;12.00;;;10.60;99.90;;;;;;5075412;28;20306;-80
2023/04/17 00:04:20;;;;;;;12.93;11.68;;;10.60;99.90;;;;;;5072683;28;20292;-80
2023/04/17 00:06:52;;;;;;;12.73;11.45;;;10.60;99.90;;;;;;5075416;28;20231;-80
2023/04/17 00:09:20;;;;;;;12.32;11.02;;;10.60;99.90;;;;;;5073956;28;20232;-80
2023/04/17 00:11:50;;;;;;;13.35;12.05;;;10.60;99.90;;;;;;5074971;28;20228;-80
2023/04/17 00:14:20;;;;;;;13.23;12.02;;;10.60;99.90;;;;;;5059284;28;20281;-79
2023/04/17 00:16:54;;;;;;;11.80;10.65;;;10.60;99.90;;;;;;5074464;28;20279;-79
2023/04/17 00:19:21;;;;;;;11.60;10.27;;;10.50;99.90;;;;;;5064160;28;20258;-80
2023/04/17 00:21:58;;;;;;;11.75;10.55;;;10.50;99.90;;;;;;5074238;28;20220;-79
2023/04/17 00:24:27;;;;;;;14.50;12.23;;;10.50;99.90;;;;;;5094491;28;20259;-79
2023/04/17 00:26:55;;;;;;;12.35;10.63;;;10.50;99.90;;;;;;5095866;28;20310;-79
2023/04/17 00:29:22;;;;;;;14.60;13.13;;;10.50;99.90;;;;;;5094926;28;20235;-80
2023/04/17 00:31:49;;;;;;;13.15;11.25;;;10.50;99.90;;;;;;5093615;28;20227;-80
2023/04/17 00:34:17;;;;;;;13.30;11.43;;;10.50;99.90;;;;;;5094734;28;20696;-80
2023/04/17 00:36:44;;;;;;;13.05;11.85;;;10.50;99.90;;;;;;5094478;28;20628;-79
2023/04/17 00:39:17;;;;;;;13.73;12.27;;;10.50;99.90;;;;;;5094047;28;20242;-80
2023/04/17 00:41:44;;;;;;;12.60;11.48;;;10.50;99.90;;;;;;5082245;28;20276;-78
2023/04/17 00:44:20;;;;;;;14.25;11.20;;;10.50;99.90;;;;;;5085566;28;20230;-78
2023/04/17 00:46:52;;;;;;;12.43;11.23;;;10.50;99.90;;;;;;5085435;28;20230;-80
2023/04/17 00:49:23;;;;;;;11.77;10.88;;;10.40;99.90;;;;;;5094699;28;20220;-79
2023/04/17 00:51:55;;;;;;;14.00;12.60;;;10.40;99.90;;;;;;5094132;28;20245;-79
2023/04/17 00:54:23;;;;;;;13.30;11.63;;;10.40;99.90;;;;;;5082747;28;20264;-80
2023/04/17 00:56:55;;;;;;;12.50;11.30;;;10.40;99.90;;;;;;5093631;28;20243;-80
2023/04/17 00:59:41;;;;;;;12.40;11.30;;;10.40;99.90;;;;;;5097660;28;20226;-80
2023/04/17 01:02:08;;;;;;;12.27;11.07;;;10.30;99.90;;;;;;5097231;28;20624;-79
2023/04/17 01:04:58;;;;;;;13.20;10.70;;;10.30;99.90;;;;;;5101148;28;20231;-79
2023/04/17 01:07:26;;;;;;;14.20;11.90;;;10.30;99.90;;;;;;5095345;28;20584;-79
2023/04/17 01:09:54;;;;;;;16.23;11.70;;;10.30;99.90;;;;;;5102122;28;20246;-79
2023/04/17 01:12:34;;;;;;;14.52;11.05;;;10.30;99.90;;;;;;5101777;28;20254;-78
2023/04/17 01:15:09;;;;;;;13.60;12.15;;;10.30;99.90;;;;;;5094069;28;20215;-80
2023/04/17 01:17:35;;;;;;;15.60;14.00;;;10.20;99.90;;;;;;5082042;28;20223;-79
2023/04/17 01:20:06;;;;;;;13.18;11.38;;;10.20;99.90;;;;;;5093035;28;20227;-79
2023/04/17 01:22:54;;;;;;;13.40;12.00;;;10.20;99.90;;;;;;5094600;28;20335;-79
2023/04/17 01:25:23;;;;;;;16.02;12.10;;;10.30;99.90;;;;;;5093639;28;20300;-79
2023/04/17 01:27:50;;;;;;;13.68;12.25;;;10.30;99.90;;;;;;5094988;28;20235;-78
2023/04/17 01:30:17;;;;;;;12.85;11.65;;;10.20;99.90;;;;;;5112043;28;20218;-80
2023/04/17 01:32:43;;;;;;;13.73;12.43;;;10.20;99.90;;;;;;5115122;27;20226;-80
2023/04/17 01:35:13;;;;;;;14.98;13.45;;;10.20;99.90;;;;;;5094510;28;20373;-79
2023/04/17 01:37:41;;;;;;;16.05;13.20;;;10.20;99.90;;;;;;5114069;28;20250;-78
2023/04/17 01:40:09;;;;;;;13.10;11.77;;;10.20;99.90;;;;;;5113724;28;20276;-79
2023/04/17 01:42:42;;;;;;;15.07;12.20;;;10.20;99.90;;;;;;5103029;28;20223;-79
2023/04/17 01:45:12;;;;;;;14.57;13.18;;;10.20;99.90;;;;;;5114283;28;20236;-78
2023/04/17 01:47:38;;;;;;;12.88;11.38;;;10.20;99.90;;;;;;5113264;28;20250;-78
2023/04/17 01:50:16;;;;;;;14.05;12.65;;;10.20;99.90;;;;;;5113721;28;20301;-79
2023/04/17 01:52:44;;;;;;;14.13;12.80;;;10.20;99.90;;;;;;5114927;28;20237;-78
2023/04/17 01:55:14;;;;;;;14.68;13.27;;;10.10;99.90;;;;;;5090288;28;20231;-78
2023/04/17 01:57:46;;;;;;;14.73;12.93;;;10.10;99.90;;;;;;5113518;28;20234;-79
2023/04/17 02:00:16;;;;;;;15.70;13.65;;;10.10;99.90;;;;;;5105141;28;20254;-79
2023/04/17 02:02:45;;;;;;;14.95;13.45;;;10.10;99.90;;;;;;5093792;27;20342;-77
2023/04/17 02:05:23;;;;;;;18.77;14.82;;;10.10;99.90;;;;;;5113134;28;20238;-78
2023/04/17 02:07:56;;;;;;;14.35;12.95;;;10.00;99.90;;;;;;5106474;28;20218;-78
2023/04/17 02:10:23;;;;;;;15.77;12.18;;;10.00;99.90;;;;;;5114052;28;20254;-78
2023/04/17 02:12:54;;;;;;;17.75;14.05;;;10.00;99.90;;;;;;5103570;28;20250;-79
2023/04/17 02:15:21;;;;;;;14.90;13.35;;;10.00;99.90;;;;;;5109816;28;20256;-79
2023/04/17 02:17:54;;;;;;;14.25;12.52;;;9.90;99.90;;;;;;5093616;28;20571;-79
2023/04/17 02:20:27;;;;;;;15.93;14.10;;;9.90;99.90;;;;;;5092376;28;20227;-78
2023/04/17 02:23:11;;;;;;;17.70;13.52;;;9.80;99.90;;;;;;5093429;28;20216;-79
2023/04/17 02:25:38;;;;;;;13.77;12.20;;;9.80;99.90;;;;;;5086673;28;20238;-79
2023/04/17 02:28:07;;;;;;;14.13;12.70;;;9.80;99.90;;;;;;5112831;28;20356;-79
2023/04/17 02:30:36;;;;;;;13.05;11.85;;;9.80;99.90;;;;;;5103879;28;20240;-79
2023/04/17 02:33:25;;;;;;;13.73;12.43;;;9.70;99.90;;;;;;5109666;28;20583;-79
2023/04/17 02:35:52;;;;;;;15.20;12.30;;;9.70;99.90;;;;;;5096328;28;20231;-79
2023/04/17 02:38:45;;;;;;;18.50;12.93;;;9.70;99.90;;;;;;5102342;28;20607;-79
2023/04/17 02:41:12;;;;;;;16.05;12.07;;;9.70;99.90;;;;;;5099946;28;20318;-79
2023/04/17 02:43:40;;;;;;;13.85;12.40;;;9.70;99.90;;;;;;5113411;28;20247;-79
2023/04/17 02:46:07;;;;;;;20.65;13.35;;;9.60;99.90;;;;;;5112759;28;20254;-79
2023/04/17 02:48:34;;;;;;;15.13;12.75;;;9.60;99.90;;;;;;5101751;28;20295;-79
2023/04/17 02:51:03;;;;;;;16.10;12.45;;;9.60;99.90;;;;;;5112750;28;20329;-79
2023/04/17 02:53:34;;;;;;;13.25;11.85;;;9.60;99.90;;;;;;5096010;28;20251;-79
2023/04/17 02:56:01;;;;;;;15.35;12.70;;;9.60;99.90;;;;;;5094816;28;20231;-79
2023/04/17 02:58:47;;;;;;;12.85;11.18;;;9.50;99.90;;;;;;5096451;28;20241;-79
2023/04/17 03:01:17;;;;;;;14.57;13.07;;;9.50;99.90;;;;;;5096980;28;20223;-79
2023/04/17 03:04:13;;;;;;;13.00;11.80;;;9.50;99.90;;;;;;5095965;28;20227;-79
2023/04/17 03:06:41;;;;;;;14.60;12.82;;;9.50;99.90;;;;;;5098638;28;20292;-79
2023/04/17 03:09:21;;;;;;;14.43;12.98;;;9.50;99.90;;;;;;5077235;28;20266;-77
2023/04/17 03:12:18;;;;;;;17.48;12.40;;;9.50;99.90;;;;;;5098118;28;20253;-78
2023/04/17 03:14:45;;;;;;;17.27;13.30;;;9.40;99.90;;;;;;5098004;28;20223;-78
2023/04/17 03:17:15;;;;;;;13.85;12.40;;;9.40;99.90;;;;;;5087956;28;20322;-77
2023/04/17 03:19:45;;;;;;;14.10;12.63;;;9.40;99.90;;;;;;5086170;28;20250;-79
2023/04/17 03:22:12;;;;;;;15.82;13.05;;;9.40;99.90;;;;;;5097328;28;20782;-78
2023/04/17 03:24:42;;;;;;;17.27;12.60;;;9.40;99.90;;;;;;5085412;28;20231;-78
2023/04/17 03:30:06;;;;;;;13.43;11.60;;;9.40;99.90;;;;;;5090802;28;20697;-78
2023/04/17 03:32:34;;;;;;;14.27;12.77;;;9.40;99.90;;;;;;5110456;28;20616;-78
2023/04/17 03:35:25;;;;;;;13.73;12.00;;;9.40;99.90;;;;;;5118949;28;20309;-76
2023/04/17 03:38:04;;;;;;;17.75;12.80;;;9.40;99.90;;;;;;5117772;28;20260;-79
2023/04/17 03:40:33;;;;;;;14.35;12.23;;;9.40;99.90;;;;;;5114173;28;20229;-79
2023/04/17 03:43:10;;;;;;;13.90;12.40;;;9.40;99.90;;;;;;5105531;28;20516;-79
2023/04/17 03:45:43;;;;;;;14.52;13.07;;;9.40;99.90;;;;;;5118815;28;20228;-78
2023/04/17 03:48:16;;;;;;;15.38;13.30;;;9.30;99.90;;;;;;5097819;28;20703;-78
2023/04/17 03:50:49;;;;;;;14.90;13.32;;;9.30;99.90;;;;;;5096089;28;20361;-78
2023/04/17 03:53:16;;;;;;;15.25;13.65;;;9.30;99.90;;;;;;5080458;28;20224;-78
2023/04/17 03:55:46;;;;;;;16.75;14.02;;;9.30;99.90;;;;;;5063837;28;20621;-78
2023/04/17 03:58:13;;;;;;;17.30;12.88;;;9.20;99.90;;;;;;5095900;28;20245;-77
2023/04/17 04:00:40;;;;;;;15.55;13.73;;;9.20;99.90;;;;;;5085725;28;20224;-77
2023/04/17 04:03:12;;;;;;;17.52;13.15;;;9.20;99.90;;;;;;5097729;28;20215;-78
2023/04/17 04:05:47;;;;;;;17.27;15.23;;;9.20;99.90;;;;;;5066100;28;20636;-78
2023/04/17 04:08:19;;;;;;;16.55;14.73;;;9.20;99.90;;;;;;5088808;28;20683;-78
2023/04/17 04:10:50;;;;;;;18.95;15.77;;;9.20;99.90;;;;;;5098122;28;20579;-78
2023/04/17 04:13:16;;;;;;;16.67;14.85;;;9.20;99.90;;;;;;5095984;28;20543;-79
2023/04/17 04:19:02;;;;;;;16.02;14.25;;;9.20;99.90;;;;;;5079670;28;20243;-78
2023/04/17 04:21:31;;;;;;;19.50;14.88;;;9.10;99.90;;;;;;5076446;28;20554;-79
2023/04/17 04:24:09;;;;;;;15.50;13.75;;;9.10;99.90;;;;;;5096742;28;20625;-79
2023/04/17 04:26:48;;;;;;;17.17;14.70;;;9.10;99.90;;;;;;5096718;28;20231;-79
2023/04/17 04:29:16;;;;;;;16.65;14.90;;;9.10;99.90;;;;;;5094691;28;20284;-79
2023/04/17 04:31:45;;;;;;;17.42;15.20;;;9.10;99.90;;;;;;5094445;28;20259;-79
2023/04/17 04:34:15;;;;;;;18.73;15.45;;;9.10;99.90;;;;;;5095664;28;20219;-78
2023/04/17 04:36:53;;;;;;;16.98;14.15;;;9.10;99.90;;;;;;5093619;28;20227;-79
2023/04/17 04:39:24;;;;;;;18.10;15.35;;;9.10;99.90;;;;;;5094291;28;20231;-79
2023/04/17 04:41:54;;;;;;;16.13;14.23;;;9.10;99.90;;;;;;5082555;28;20223;-79
2023/04/17 04:44:24;;;;;;;21.60;14.65;;;9.10;99.90;;;;;;5081633;28;20544;-79
2023/04/17 04:46:54;;;;;;;16.70;14.75;;;9.20;99.90;;;;;;5092609;28;20220;-79
2023/04/17 04:49:44;;;;;;;18.52;16.50;;;9.10;99.90;;;;;;5094140;28;20616;-79
2023/04/17 04:52:17;;;;;;;17.92;15.23;;;9.10;99.90;;;;;;5095266;28;20224;-78
2023/04/17 04:54:45;;;;;;;19.05;17.00;;;9.20;99.90;;;;;;5096426;28;20219;-79
2023/04/17 05:00:08;;;;;;;18.40;15.50;;;9.10;99.90;;;;;;5094633;28;20291;-78
2023/04/17 05:03:21;;;;;;;21.13;16.63;;;9.10;99.90;;;;;;5073462;28;20251;-78
2023/04/17 05:06:01;;;;;;;18.75;15.32;;;9.20;99.90;;;;;;5071780;28;20281;-78
2023/04/17 05:08:30;;;;;;;22.23;16.83;;;9.20;99.90;;;;;;5076849;28;20304;-78
2023/04/17 05:10:58;;;;;;;17.35;15.55;;;9.20;99.90;;;;;;5094193;28;20219;-78
2023/04/17 05:13:36;;;;;;;20.23;15.98;;;9.20;99.90;;;;;;5088145;28;20310;-79
2023/04/17 05:16:04;;;;;;;19.10;15.50;;;9.30;99.90;;;;;;5095900;28;20223;-79
2023/04/17 05:18:46;;;;;;;19.15;17.25;;;9.20;99.90;;;;;;5096170;28;20223;-78
2023/04/17 05:21:20;;;;;;;17.50;15.50;;;9.20;99.90;;;;;;5093754;28;20276;-78
2023/04/17 05:23:47;;;;;;;18.05;16.25;;;9.30;99.90;;;;;;5095857;28;20219;-78
2023/04/17 05:26:16;;;;;;;22.17;18.02;;;9.30;99.90;;;;;;5087137;28;20253;-79
2023/04/17 05:28:49;;;;;;;19.05;16.55;;;9.20;99.90;;;;;;5095466;28;20223;-79
2023/04/17 05:31:33;;;;;;;20.98;17.88;;;9.30;99.90;;;;;;5094348;28;20215;-79
2023/04/17 05:36:58;;;;;;;21.38;18.45;;;9.30;99.90;;;;;;5113026;22;20652;-79
2023/04/17 05:39:26;;;;;;;24.10;19.95;;;9.30;99.90;;;;;;5135188;27;20321;-79
2023/04/17 05:41:57;;;;;;;28.77;20.08;;;9.30;99.90;;;;;;5126939;27;20225;-79
2023/04/17 05:44:25;;;;;;;21.10;18.88;;;9.30;99.90;;;;;;5134351;27;20221;-79
2023/04/17 05:47:02;;;;;;;21.50;18.55;;;9.30;99.90;;;;;;5125683;27;20628;-79
2023/04/17 05:49:50;;;;;;;26.92;19.35;;;9.30;99.90;;;;;;5105252;27;20231;-79
2023/04/17 05:52:21;;;;;;;25.80;18.75;;;9.30;99.90;;;;;;5124836;27;20259;-80
2023/04/17 05:58:11;;;;;;;25.05;21.52;;;9.30;99.90;;;;;;5086903;27;20214;-78
2023/04/17 06:00:39;;;;;;;23.30;20.23;;;9.30;99.90;;;;;;5135650;27;20226;-79
2023/04/17 06:03:06;;;;;;;25.35;20.75;;;9.20;99.90;;;;;;5120636;27;20217;-79
2023/04/17 06:05:42;;;;;;;30.83;21.05;;;9.20;99.90;;;;;;5120359;27;20666;-79
2023/04/17 06:08:10;;;;;;;27.38;20.92;;;9.20;99.90;;;;;;5116797;28;20543;-79
2023/04/17 06:14:12;;;;;;;24.08;20.60;;;9.30;99.90;;;;;;4937042;28;20604;-79
2023/04/17 06:16:39;;;;;;;26.95;21.73;;;9.30;99.90;;;;;;5016014;28;20257;-79
2023/04/17 06:19:32;;;;;;;25.70;20.40;;;9.30;99.90;;;;;;5016249;28;20229;-79
2023/04/17 06:22:17;;;;;;;23.73;20.95;;;9.30;99.90;;;;;;5093380;28;20241;-79
2023/04/17 06:25:01;;;;;;;25.17;18.98;;;9.30;99.90;;;;;;5113015;28;20235;-78
2023/04/17 06:27:28;;;;;;;24.40;21.80;;;9.30;99.90;;;;;;5121283;28;20264;-78
2023/04/17 06:32:56;;;;;;;21.77;19.48;;;9.40;99.90;;;;;;5088463;28;20321;-79
2023/04/17 06:35:23;;;;;;;25.92;21.25;;;9.40;99.90;;;;;;5120208;28;20226;-79
2023/04/17 06:37:58;;;;;;;42.72;30.27;;;9.40;99.90;;;;;;5103975;28;20228;-79
2023/04/17 06:40:36;;;;;;;29.45;24.13;;;9.40;99.90;;;;;;5098699;28;20241;-80
2023/04/17 06:43:03;;;;;;;25.70;22.48;;;9.40;99.90;;;;;;5104523;28;20222;-79
2023/04/17 06:45:34;;;;;;;24.45;20.25;;;9.50;99.90;;;;;;5114430;28;20684;-78
2023/04/17 06:48:02;;;;;;;24.60;21.65;;;9.50;99.90;;;;;;5087259;28;20218;-78
2023/04/17 06:50:32;;;;;;;24.55;21.73;;;9.60;99.90;;;;;;5125183;28;20221;-79
2023/04/17 06:52:59;;;;;;;24.00;20.20;;;9.60;99.90;;;;;;5128984;28;20226;-78
2023/04/17 06:55:28;;;;;;;24.75;21.50;;;9.60;99.90;;;;;;5121767;28;20294;-78
2023/04/17 06:58:12;;;;;;;25.90;19.55;;;9.70;99.90;;;;;;5132601;28;20283;-78
2023/04/17 07:00:40;;;;;;;24.00;21.45;;;9.70;99.90;;;;;;5133214;28;20229;-78
2023/04/17 07:03:15;;;;;;;22.33;19.38;;;9.70;99.90;;;;;;5126985;28;20230;-78
2023/04/17 07:05:44;;;;;;;22.55;18.63;;;9.70;99.90;;;;;;5120548;28;20628;-78
2023/04/17 07:08:21;;;;;;;26.33;21.55;;;9.70;99.90;;;;;;5133149;28;20267;-79
2023/04/17 07:10:50;;;;;;;24.90;19.90;;;9.80;99.90;;;;;;5112828;28;20280;-78
2023/04/17 07:13:41;;;;;;;24.67;20.38;;;9.80;99.90;;;;;;5134416;28;20221;-78
2023/04/17 07:16:08;;;;;;;28.95;20.55;;;9.80;99.90;;;;;;5093896;28;20705;-79
2023/04/17 07:18:35;;;;;;;29.95;21.73;;;9.80;99.90;;;;;;5134233;28;20218;-78
2023/04/17 07:21:07;;;;;;;21.85;18.65;;;9.80;99.90;;;;;;5123198;28;20235;-78
2023/04/17 07:23:34;;;;;;;19.50;17.38;;;9.80;99.90;;;;;;5120066;28;20217;-78
2023/04/17 07:26:19;;;;;;;23.10;19.25;;;9.80;99.90;;;;;;5121396;28;20275;-78
2023/04/17 07:28:46;;;;;;;24.45;19.52;;;9.90;99.90;;;;;;5132653;28;20228;-78
2023/04/17 07:31:13;;;;;;;25.95;20.20;;;9.90;99.90;;;;;;5133596;28;20614;-78
2023/04/17 07:33:40;;;;;;;26.10;19.20;;;9.90;99.90;;;;;;5132200;28;20229;-78
2023/04/17 07:36:18;;;;;;;25.95;20.23;;;9.80;99.90;;;;;;5133113;28;20230;-78
2023/04/17 07:38:46;;;;;;;19.73;17.52;;;9.90;99.90;;;;;;5133051;28;20313;-77
2023/04/17 07:41:16;;;;;;;21.95;19.65;;;9.90;99.90;;;;;;5122197;27;21000;-79
2023/04/17 07:43:48;;;;;;;20.65;18.05;;;9.90;99.90;;;;;;5124713;27;20232;-78
2023/04/17 07:46:17;;;;;;;23.75;20.00;;;10.00;99.90;;;;;;5135110;27;20708;-79
2023/04/17 07:48:46;;;;;;;22.00;19.25;;;9.90;99.90;;;;;;5136839;27;20218;-78
2023/04/17 07:51:13;;;;;;;24.80;18.92;;;10.00;99.90;;;;;;5126089;27;20305;-79
2023/04/17 07:53:47;;;;;;;26.02;20.02;;;10.00;99.90;;;;;;5123169;27;20237;-78
2023/04/17 07:56:16;;;;;;;25.80;19.90;;;10.10;99.90;;;;;;5136917;27;20218;-78
2023/04/17 08:01:51;;;;;;;24.27;19.30;;;10.10;99.90;;;;;;5116794;27;20719;-78
2023/04/17 08:04:21;;;;;;;25.45;18.45;;;10.20;99.90;;;;;;5127507;27;20218;-78
2023/04/17 08:06:49;;;;;;;25.50;19.13;;;10.30;99.90;;;;;;5121457;27;20226;-78
2023/04/17 08:12:03;;;;;;;21.15;17.13;;;10.40;99.90;;;;;;5113237;27;20548;-78
2023/04/17 08:17:11;;;;;;;22.52;19.45;;;10.50;99.90;;;;;;5134191;27;20693;-77
2023/04/17 08:19:39;;;;;;;25.65;19.13;;;10.60;99.90;;;;;;5135046;27;20350;-78
2023/04/17 08:22:06;;;;;;;27.25;18.08;;;10.60;99.90;;;;;;5125959;27;20221;-77
2023/04/17 08:24:33;;;;;;;21.90;16.05;;;10.70;99.90;;;;;;5136035;27;20237;-78
2023/04/17 08:27:02;;;;;;;25.27;18.40;;;10.80;99.90;;;;;;5135850;27;20221;-78
2023/04/17 08:29:31;;;;;;;19.83;17.80;;;10.80;99.90;;;;;;5136130;27;20218;-78
2023/04/17 08:32:01;;;;;;;18.02;15.85;;;10.80;99.90;;;;;;5122204;27;20221;-78
2023/04/17 08:34:30;;;;;;;19.50;17.02;;;10.90;99.90;;;;;;5135482;27;20230;-78
2023/04/17 08:37:02;;;;;;;25.88;18.25;;;11.00;99.90;;;;;;5136194;27;20230;-78
2023/04/17 08:40:12;;;;;;;23.15;16.95;;;11.00;99.90;;;;;;5136829;27;20264;-78
2023/04/17 08:42:43;;;;;;;18.73;16.70;;;11.10;99.90;;;;;;5126602;27;20221;-78
2023/04/17 08:45:19;;;;;;;19.65;17.20;;;11.10;99.90;;;;;;5136348;27;20629;-78
2023/04/17 08:47:46;;;;;;;21.73;17.52;;;11.20;99.90;;;;;;5125618;27;20304;-78
2023/04/17 08:50:15;;;;;;;18.50;16.70;;;11.20;99.90;;;;;;5119541;27;20308;-79
2023/04/17 08:56:11;;;;;;;20.60;16.80;;;11.20;99.90;;;;;;5107240;27;20249;-79
2023/04/17 08:58:43;;;;;;;17.60;15.88;;;11.30;99.90;;;;;;5134646;27;20228;-79
2023/04/17 09:01:11;;;;;;;16.63;14.98;;;11.40;99.90;;;;;;5136773;27;20218;-79
2023/04/17 09:03:43;;;;;;;17.80;15.98;;;11.50;99.90;;;;;;5136086;27;20221;-78
2023/04/17 09:06:10;;;;;;;19.35;16.30;;;11.50;99.90;;;;;;5127321;27;20229;-78
2023/04/17 09:08:55;;;;;;;17.40;15.50;;;11.50;99.90;;;;;;5137564;27;20723;-78
2023/04/17 09:11:29;;;;;;;19.42;16.08;;;11.50;99.90;;;;;;5136785;27;20312;-78
2023/04/17 09:13:59;;;;;;;18.08;16.10;;;11.50;99.90;;;;;;5137067;27;20247;-79
2023/04/17 09:16:30;;;;;;;18.17;16.23;;;11.60;99.90;;;;;;5136109;27;20237;-78
2023/04/17 09:19:21;;;;;;;16.05;14.52;;;11.70;99.90;;;;;;5136946;27;20214;-79
2023/04/17 09:21:55;;;;;;;17.83;16.13;;;11.80;99.90;;;;;;5134802;27;20214;-79
2023/04/17 09:24:38;;;;;;;16.85;14.80;;;11.90;99.90;;;;;;5124260;27;20574;-79
2023/04/17 09:27:20;;;;;;;23.05;15.23;;;12.00;99.90;;;;;;5139536;27;20233;-78
2023/04/17 09:30:02;;;;;;;16.67;14.95;;;12.10;99.90;;;;;;5145344;27;20225;-78
2023/04/17 09:32:30;;;;;;;19.00;15.15;;;12.20;99.90;;;;;;5148664;27;20217;-78
2023/04/17 09:35:00;;;;;;;17.23;14.27;;;12.30;99.90;;;;;;5143149;27;20240;-78
2023/04/17 09:37:48;;;;;;;23.73;16.23;;;12.30;99.90;;;;;;5147089;27;20301;-79
2023/04/17 09:40:29;;;;;;;18.15;15.73;;;12.30;99.90;;;;;;5150488;27;20218;-79
2023/04/17 09:43:00;;;;;;;16.90;15.10;;;12.30;99.90;;;;;;5140039;27;20222;-78
2023/04/17 09:45:34;;;;;;;15.32;13.60;;;12.40;99.90;;;;;;5153528;27;20292;-78
2023/04/17 09:48:16;;;;;;;18.50;16.38;;;12.50;99.90;;;;;;5150952;27;20244;-77
2023/04/17 09:50:51;;;;;;;14.25;12.95;;;12.60;99.90;;;;;;5130698;27;20227;-79
2023/04/17 09:53:28;;;;;;;14.30;12.85;;;12.60;99.90;;;;;;5139879;27;20217;-79
2023/04/17 09:55:57;;;;;;;15.02;13.70;;;12.60;99.90;;;;;;5124949;27;20221;-79
2023/04/17 09:58:26;;;;;;;15.77;13.65;;;12.60;99.90;;;;;;5133807;27;20292;-78
2023/04/17 10:00:54;;;;;;;15.80;14.40;;;12.70;99.90;;;;;;5120689;27;20279;-78
2023/04/17 10:03:22;;;;;;;14.60;13.10;;;12.70;99.90;;;;;;5121816;27;20294;-78
2023/04/17 10:05:50;;;;;;;16.25;14.63;;;12.70;99.90;;;;;;5132543;27;20257;-78
2023/04/17 10:08:32;;;;;;;16.63;14.07;;;12.80;99.90;;;;;;5124062;27;20228;-78
2023/04/17 10:11:04;;;;;;;15.90;14.30;;;12.80;99.90;;;;;;5145980;27;20226;-78
2023/04/17 10:13:33;;;;;;;14.02;12.52;;;12.80;99.90;;;;;;5139275;27;20226;-78
2023/04/17 10:16:12;;;;;;;15.35;13.93;;;12.90;99.90;;;;;;5136822;27;20517;-78
2023/04/17 10:18:44;;;;;;;13.77;12.45;;;12.80;99.90;;;;;;5136624;27;20229;-77
2023/04/17 10:21:23;;;;;;;14.43;13.02;;;12.90;99.90;;;;;;5147991;27;20237;-78
2023/04/17 10:23:50;;;;;;;15.05;13.55;;;12.80;99.90;;;;;;5147814;27;20224;-79
2023/04/17 10:26:40;;;;;;;17.25;12.98;;;12.90;99.90;;;;;;5135765;27;20233;-78
2023/04/17 10:29:17;;;;;;;14.82;13.13;;;12.80;99.90;;;;;;5143160;28;20301;-78
2023/04/17 10:35:35;;;;;;;13.70;12.32;;;12.70;99.90;;;;;;5141173;28;20241;-78
2023/04/17 10:38:05;;;;;;;14.45;13.00;;;12.60;99.90;;;;;;5152977;28;20233;-78
2023/04/17 10:40:36;;;;;;;14.07;12.27;;;12.60;99.90;;;;;;5148742;28;20236;-79
2023/04/17 10:43:27;;;;;;;13.18;11.88;;;12.60;99.90;;;;;;5150815;28;20222;-78
2023/04/17 10:46:06;;;;;;;14.82;12.50;;;12.60;99.90;;;;;;5138172;28;20225;-78
2023/04/17 10:48:39;;;;;;;15.32;13.82;;;12.70;99.90;;;;;;5152625;28;20218;-78
2023/04/17 10:51:45;;;;;;;14.95;11.90;;;12.80;99.90;;;;;;5147244;28;20321;-79
2023/04/17 10:54:15;;;;;;;16.38;12.10;;;12.70;99.90;;;;;;5150263;28;20301;-78
2023/04/17 10:56:47;;;;;;;12.80;11.50;;;12.80;99.90;;;;;;5144849;28;20222;-79
2023/04/17 11:02:08;;;;;;;14.70;11.75;;;12.80;99.90;;;;;;5122304;28;20228;-79
2023/04/17 11:04:46;;;;;;;12.70;11.40;;;12.80;99.90;;;;;;5133463;28;20620;-78
2023/04/17 11:07:18;;;;;;;14.18;11.80;;;12.80;99.90;;;;;;5132233;28;20365;-78
2023/04/17 11:09:52;;;;;;;12.13;10.90;;;12.80;99.90;;;;;;5123353;28;20547;-78
2023/04/17 11:12:19;;;;;;;12.40;11.10;;;12.90;99.90;;;;;;5140507;28;20305;-77
2023/04/17 11:14:47;;;;;;;13.68;12.30;;;13.00;99.90;;;;;;5132313;27;20230;-78
2023/04/17 11:17:23;;;;;;;13.73;11.32;;;13.10;99.90;;;;;;5137755;27;20630;-78
2023/04/17 11:19:52;;;;;;;13.82;12.43;;;13.20;99.90;;;;;;5133851;27;20225;-79
2023/04/17 11:22:32;;;;;;;16.05;12.88;;;13.40;99.90;;;;;;5143450;27;20263;-79
2023/04/17 11:24:59;;;;;;;17.27;13.90;;;13.40;99.90;;;;;;5132734;27;20629;-78
2023/04/17 11:27:27;;;;;;;13.73;12.37;;;13.50;99.90;;;;;;5138886;27;20479;-78
2023/04/17 11:29:54;;;;;;;15.80;14.07;;;13.50;99.90;;;;;;5140725;27;20554;-78
2023/04/17 11:32:21;;;;;;;14.00;12.50;;;13.60;99.90;;;;;;5139440;27;20816;-79
2023/04/17 11:34:50;;;;;;;12.98;11.68;;;13.60;99.90;;;;;;5139179;27;20476;-78
2023/04/17 11:37:22;;;;;;;15.70;13.27;;;13.60;99.90;;;;;;5126846;27;20590;-78
2023/04/17 11:39:50;;;;;;;14.15;12.82;;;13.60;99.90;;;;;;5136221;27;20229;-79
2023/04/17 11:42:31;;;;;;;16.23;13.20;;;13.50;99.90;;;;;;5124565;27;20222;-79
2023/04/17 11:45:04;;;;;;;14.75;12.45;;;13.40;99.90;;;;;;5134704;27;20232;-79
2023/04/17 11:47:31;;;;;;;13.40;11.57;;;13.40;99.90;;;;;;5125473;27;20369;-79
2023/04/17 11:49:58;;;;;;;16.48;12.57;;;13.30;99.90;;;;;;5135933;27;20452;-79
2023/04/17 11:52:32;;;;;;;14.68;12.57;;;13.30;99.90;;;;;;5136738;27;20233;-79
2023/04/17 11:55:15;;;;;;;15.95;12.98;;;13.40;99.90;;;;;;5124806;27;20675;-79
2023/04/17 11:57:45;;;;;;;16.00;11.73;;;13.40;99.90;;;;;;5125887;27;20250;-79
2023/04/17 12:00:14;;;;;;;16.55;13.88;;;13.40;99.90;;;;;;5134244;27;20469;-79
2023/04/17 12:02:46;;;;;;;16.85;13.05;;;13.30;99.90;;;;;;5136743;27;20253;-78
2023/04/17 12:05:16;;;;;;;12.90;11.50;;;13.30;99.90;;;;;;5126723;27;20238;-79
2023/04/17 12:07:45;;;;;;;12.80;11.50;;;13.40;99.90;;;;;;5136591;27;20237;-78
2023/04/17 12:10:16;;;;;;;10.85;9.27;;;13.40;99.90;;;;;;5135141;27;20698;-79
2023/04/17 12:12:44;;;;;;;12.53;10.53;;;13.40;99.90;;;;;;5135986;27;20226;-79
2023/04/17 12:15:11;;;;;;;14.40;13.02;;;13.40;99.90;;;;;;5135643;27;20467;-79
2023/04/17 12:17:42;;;;;;;14.65;12.10;;;13.40;99.90;;;;;;5127131;27;20325;-79
2023/04/17 12:20:10;;;;;;;14.38;12.98;;;13.40;99.90;;;;;;5133002;27;20570;-79
2023/04/17 12:22:37;;;;;;;12.90;11.70;;;13.40;99.90;;;;;;5131482;27;20296;-79
2023/04/17 12:25:05;;;;;;;13.85;12.52;;;13.30;99.90;;;;;;5133101;27;20486;-79
2023/04/17 12:27:37;;;;;;;15.70;13.80;;;13.20;99.90;;;;;;5128531;27;20222;-79
2023/04/17 12:30:12;;;;;;;14.48;12.82;;;13.10;99.90;;;;;;5119246;27;20573;-78
2023/04/17 12:33:32;;;;;;;15.60;14.07;;;13.00;99.90;;;;;;5121399;27;20213;-78
2023/04/17 12:36:03;;;;;;;13.02;11.73;;;12.90;99.90;;;;;;5059843;27;20232;-79
2023/04/17 12:38:32;;;;;;;14.90;11.55;;;12.80;99.90;;;;;;5123302;27;20230;-78
2023/04/17 12:40:59;;;;;;;12.40;10.98;;;12.80;99.90;;;;;;5105281;27;20222;-78
2023/04/17 12:43:38;;;;;;;11.98;10.75;;;12.70;99.90;;;;;;5115940;27;20611;-78
2023/04/17 12:46:20;;;;;;;12.38;11.07;;;12.70;99.90;;;;;;5124636;27;20278;-79
2023/04/17 12:48:57;;;;;;;;;;;;;;;;;;;;;
2023/04/17 12:51:26;;;;;;;17.83;12.73;;;12.50;99.90;;;;;;5136428;27;20240;-78
2023/04/17 12:53:54;;;;;;;13.13;11.85;;;12.50;99.90;;;;;;5114923;27;20223;-78
2023/04/17 12:56:23;;;;;;;13.73;12.27;;;12.50;99.90;;;;;;5126923;27;20241;-78
2023/04/17 12:58:54;;;;;;;13.52;12.10;;;12.50;99.90;;;;;;5133769;27;20222;-78
2023/04/17 13:01:26;;;;;;;11.27;10.20;;;12.40;99.90;;;;;;5109420;27;20310;-78
2023/04/17 13:03:53;;;;;;;15.82;13.00;;;12.40;99.90;;;;;;5125318;27;20245;-78
2023/04/17 13:06:21;;;;;;;12.77;11.52;;;12.40;99.90;;;;;;5135005;27;20294;-78
2023/04/17 13:08:48;;;;;;;12.77;11.07;;;12.40;99.90;;;;;;5126311;27;20580;-78
2023/04/17 13:11:20;;;;;;;16.35;12.70;;;12.50;99.90;;;;;;5134415;27;20225;-77
2023/04/17 13:13:51;;;;;;;14.70;11.73;;;12.50;99.90;;;;;;5135512;27;20301;-79
2023/04/17 13:16:29;;;;;;;13.35;11.88;;;12.50;99.90;;;;;;5128215;27;20214;-78
2023/04/17 13:18:56;;;;;;;16.30;11.95;;;12.50;99.90;;;;;;5128607;27;20263;-78
2023/04/17 13:21:23;;;;;;;14.68;12.52;;;12.50;99.90;;;;;;5131224;27;20313;-79
2023/04/17 13:23:50;;;;;;;18.33;13.18;;;12.40;99.90;;;;;;5134970;27;20221;-79
2023/04/17 13:26:19;;;;;;;15.20;13.73;;;12.40;99.90;;;;;;5132940;27;20267;-78
2023/04/17 13:28:46;;;;;;;15.70;13.55;;;12.40;99.90;;;;;;5133492;27;20555;-78
2023/04/17 13:31:14;;;;;;;15.10;12.73;;;12.40;99.90;;;;;;5130808;27;20228;-78
2023/04/17 13:33:43;;;;;;;15.88;13.73;;;12.40;99.90;;;;;;5132492;27;20214;-78
2023/04/17 13:36:10;;;;;;;17.13;15.40;;;12.40;99.90;;;;;;5131281;27;20218;-76
2023/04/17 13:38:37;;;;;;;16.60;14.77;;;12.30;99.90;;;;;;5123243;27;20380;-77
2023/04/17 13:41:09;;;;;;;17.88;15.77;;;12.30;99.90;;;;;;5132728;27;20305;-77